sensor_id;sensor_type;location;lat;lon;timestamp;P1;durP1;ratioP1;P2;durP2;ratioP2
28483;SDS011;15704;48.834;8.736;2023-03-29T00:02:02;5.55;;;1.95;;
28483;SDS011;15704;48.834;8.736;2023-03-29T00:04:29;6.38;;;1.80;;
28483;SDS011;15704;48.834;8.736;2023-03-29T00:06:56;2.92;;;1.70;;
28483;SDS011;15704;48.834;8.736;2023-03-29T00:09:23;5.90;;;1.98;;
28483;SDS011;15704;48.834;8.736;2023-03-29T00:11:51;3.65;;;1.75;;
28483;SDS011;15704;48.834;8.736;2023-03-29T00:14:18;2.58;;;1.80;;
28483;SDS011;15704;48.834;8.736;2023-03-29T00:16:45;3.28;;;1.73;;
28483;SDS011;15704;48.834;8.736;2023-03-29T00:19:12;6.18;;;1.85;;
28483;SDS011;15704;48.834;8.736;2023-03-29T00:21:39;2.65;;;1.70;;
28483;SDS011;15704;48.834;8.736;2023-03-29T00:24:06;2.85;;;1.60;;
28483;SDS011;15704;48.834;8.736;2023-03-29T00:26:32;2.70;;;1.73;;
28483;SDS011;15704;48.834;8.736;2023-03-29T00:28:59;2.97;;;1.70;;
28483;SDS011;15704;48.834;8.736;2023-03-29T00:31:26;2.60;;;1.92;;
28483;SDS011;15704;48.834;8.736;2023-03-29T00:33:53;2.88;;;1.60;;
28483;SDS011;15704;48.834;8.736;2023-03-29T00:36:20;2.58;;;2.03;;
28483;SDS011;15704;48.834;8.736;2023-03-29T00:38:48;4.18;;;2.00;;
28483;SDS011;15704;48.834;8.736;2023-03-29T00:41:15;4.13;;;2.13;;
28483;SDS011;15704;48.834;8.736;2023-03-29T00:43:55;2.88;;;1.92;;
28483;SDS011;15704;48.834;8.736;2023-03-29T00:46:24;3.20;;;1.70;;
28483;SDS011;15704;48.834;8.736;2023-03-29T00:48:53;5.03;;;2.08;;
28483;SDS011;15704;48.834;8.736;2023-03-29T00:51:25;2.70;;;1.88;;
28483;SDS011;15704;48.834;8.736;2023-03-29T00:53:57;6.18;;;1.77;;
28483;SDS011;15704;48.834;8.736;2023-03-29T00:56:29;3.30;;;2.20;;
28483;SDS011;15704;48.834;8.736;2023-03-29T01:01:37;4.35;;;2.08;;
28483;SDS011;15704;48.834;8.736;2023-03-29T01:04:10;6.28;;;2.08;;
28483;SDS011;15704;48.834;8.736;2023-03-29T01:06:48;2.88;;;2.08;;
28483;SDS011;15704;48.834;8.736;2023-03-29T01:09:22;2.38;;;2.03;;
28483;SDS011;15704;48.834;8.736;2023-03-29T01:11:53;3.38;;;1.88;;
28483;SDS011;15704;48.834;8.736;2023-03-29T01:16:56;2.90;;;1.45;;
28483;SDS011;15704;48.834;8.736;2023-03-29T01:19:23;2.58;;;1.73;;
28483;SDS011;15704;48.834;8.736;2023-03-29T01:21:56;8.05;;;1.83;;
28483;SDS011;15704;48.834;8.736;2023-03-29T01:30:00;4.03;;;2.08;;
28483;SDS011;15704;48.834;8.736;2023-03-29T01:37:39;3.63;;;2.00;;
28483;SDS011;15704;48.834;8.736;2023-03-29T01:40:22;4.40;;;1.90;;
28483;SDS011;15704;48.834;8.736;2023-03-29T01:48:13;9.18;;;3.70;;
28483;SDS011;15704;48.834;8.736;2023-03-29T01:50:48;5.47;;;3.53;;
28483;SDS011;15704;48.834;8.736;2023-03-29T01:53:27;14.52;;;6.07;;
28483;SDS011;15704;48.834;8.736;2023-03-29T01:56:02;6.65;;;2.85;;
28483;SDS011;15704;48.834;8.736;2023-03-29T02:01:15;11.27;;;5.20;;
28483;SDS011;15704;48.834;8.736;2023-03-29T02:03:45;13.27;;;6.30;;
28483;SDS011;15704;48.834;8.736;2023-03-29T02:06:17;6.18;;;3.45;;
28483;SDS011;15704;48.834;8.736;2023-03-29T02:08:47;9.10;;;2.75;;
28483;SDS011;15704;48.834;8.736;2023-03-29T02:11:15;5.03;;;2.35;;
28483;SDS011;15704;48.834;8.736;2023-03-29T02:13:43;3.13;;;2.33;;
28483;SDS011;15704;48.834;8.736;2023-03-29T02:16:10;4.60;;;2.40;;
28483;SDS011;15704;48.834;8.736;2023-03-29T02:18:39;5.50;;;3.25;;
28483;SDS011;15704;48.834;8.736;2023-03-29T02:21:09;2.85;;;1.60;;
28483;SDS011;15704;48.834;8.736;2023-03-29T02:23:46;2.65;;;1.40;;
28483;SDS011;15704;48.834;8.736;2023-03-29T02:26:15;11.20;;;1.90;;
28483;SDS011;15704;48.834;8.736;2023-03-29T02:28:43;3.42;;;1.83;;
28483;SDS011;15704;48.834;8.736;2023-03-29T02:31:27;3.55;;;1.92;;
28483;SDS011;15704;48.834;8.736;2023-03-29T02:36:29;7.22;;;1.38;;
28483;SDS011;15704;48.834;8.736;2023-03-29T02:39:03;4.03;;;1.95;;
28483;SDS011;15704;48.834;8.736;2023-03-29T02:41:31;2.97;;;1.77;;
28483;SDS011;15704;48.834;8.736;2023-03-29T02:43:59;6.97;;;2.13;;
28483;SDS011;15704;48.834;8.736;2023-03-29T02:46:29;5.13;;;2.00;;
28483;SDS011;15704;48.834;8.736;2023-03-29T02:48:56;5.35;;;1.90;;
28483;SDS011;15704;48.834;8.736;2023-03-29T02:51:25;2.22;;;1.67;;
28483;SDS011;15704;48.834;8.736;2023-03-29T02:54:00;4.78;;;1.75;;
28483;SDS011;15704;48.834;8.736;2023-03-29T02:56:41;3.28;;;1.73;;
28483;SDS011;15704;48.834;8.736;2023-03-29T02:59:10;5.43;;;1.83;;
28483;SDS011;15704;48.834;8.736;2023-03-29T03:01:39;3.75;;;1.73;;
28483;SDS011;15704;48.834;8.736;2023-03-29T03:04:09;2.80;;;1.80;;
28483;SDS011;15704;48.834;8.736;2023-03-29T03:06:37;3.97;;;2.60;;
28483;SDS011;15704;48.834;8.736;2023-03-29T03:09:04;7.45;;;4.00;;
28483;SDS011;15704;48.834;8.736;2023-03-29T03:11:32;27.13;;;12.07;;
28483;SDS011;15704;48.834;8.736;2023-03-29T03:13:59;38.88;;;15.27;;
28483;SDS011;15704;48.834;8.736;2023-03-29T03:16:26;36.47;;;14.30;;
28483;SDS011;15704;48.834;8.736;2023-03-29T03:18:53;83.00;;;28.75;;
28483;SDS011;15704;48.834;8.736;2023-03-29T03:21:21;47.22;;;18.17;;
28483;SDS011;15704;48.834;8.736;2023-03-29T03:23:48;62.90;;;24.60;;
28483;SDS011;15704;48.834;8.736;2023-03-29T03:26:15;55.92;;;21.88;;
28483;SDS011;15704;48.834;8.736;2023-03-29T03:28:43;50.90;;;20.30;;
28483;SDS011;15704;48.834;8.736;2023-03-29T03:31:10;41.60;;;17.25;;
28483;SDS011;15704;48.834;8.736;2023-03-29T03:33:41;67.50;;;30.45;;
28483;SDS011;15704;48.834;8.736;2023-03-29T03:36:08;53.80;;;25.27;;
28483;SDS011;15704;48.834;8.736;2023-03-29T03:38:36;34.17;;;17.08;;
28483;SDS011;15704;48.834;8.736;2023-03-29T03:41:04;28.25;;;14.40;;
28483;SDS011;15704;48.834;8.736;2023-03-29T03:43:32;11.10;;;6.05;;
28483;SDS011;15704;48.834;8.736;2023-03-29T03:45:59;6.55;;;4.25;;
28483;SDS011;15704;48.834;8.736;2023-03-29T03:48:27;3.08;;;2.10;;
28483;SDS011;15704;48.834;8.736;2023-03-29T03:50:55;6.78;;;2.25;;
28483;SDS011;15704;48.834;8.736;2023-03-29T03:53:24;3.50;;;2.10;;
28483;SDS011;15704;48.834;8.736;2023-03-29T03:55:52;7.70;;;2.05;;
28483;SDS011;15704;48.834;8.736;2023-03-29T03:58:21;3.45;;;1.70;;
28483;SDS011;15704;48.834;8.736;2023-03-29T04:00:48;3.38;;;1.65;;
28483;SDS011;15704;48.834;8.736;2023-03-29T04:03:16;3.40;;;1.70;;
28483;SDS011;15704;48.834;8.736;2023-03-29T04:05:44;2.97;;;1.75;;
28483;SDS011;15704;48.834;8.736;2023-03-29T04:08:12;2.90;;;1.67;;
28483;SDS011;15704;48.834;8.736;2023-03-29T04:10:40;4.35;;;2.10;;
28483;SDS011;15704;48.834;8.736;2023-03-29T04:13:07;1.80;;;1.48;;
28483;SDS011;15704;48.834;8.736;2023-03-29T04:15:34;3.38;;;1.63;;
28483;SDS011;15704;48.834;8.736;2023-03-29T04:18:04;2.40;;;1.67;;
28483;SDS011;15704;48.834;8.736;2023-03-29T04:20:32;2.60;;;1.65;;
28483;SDS011;15704;48.834;8.736;2023-03-29T04:23:00;4.70;;;1.60;;
28483;SDS011;15704;48.834;8.736;2023-03-29T04:25:26;2.67;;;1.73;;
28483;SDS011;15704;48.834;8.736;2023-03-29T04:27:53;2.75;;;1.23;;
28483;SDS011;15704;48.834;8.736;2023-03-29T04:30:21;1.90;;;1.38;;
28483;SDS011;15704;48.834;8.736;2023-03-29T04:32:47;5.00;;;2.20;;
28483;SDS011;15704;48.834;8.736;2023-03-29T04:35:14;9.70;;;1.92;;
28483;SDS011;15704;48.834;8.736;2023-03-29T04:37:41;1.92;;;1.52;;
28483;SDS011;15704;48.834;8.736;2023-03-29T04:40:08;2.45;;;1.27;;
28483;SDS011;15704;48.834;8.736;2023-03-29T04:42:39;4.03;;;1.02;;
28483;SDS011;15704;48.834;8.736;2023-03-29T04:45:09;2.72;;;1.25;;
28483;SDS011;15704;48.834;8.736;2023-03-29T04:47:39;1.90;;;1.35;;
28483;SDS011;15704;48.834;8.736;2023-03-29T04:50:07;3.55;;;1.80;;
28483;SDS011;15704;48.834;8.736;2023-03-29T04:52:34;1.58;;;1.10;;
28483;SDS011;15704;48.834;8.736;2023-03-29T04:55:01;3.55;;;1.50;;
28483;SDS011;15704;48.834;8.736;2023-03-29T04:57:29;2.55;;;1.30;;
28483;SDS011;15704;48.834;8.736;2023-03-29T04:59:56;2.17;;;1.30;;
28483;SDS011;15704;48.834;8.736;2023-03-29T05:02:23;2.63;;;1.27;;
28483;SDS011;15704;48.834;8.736;2023-03-29T05:04:50;3.97;;;1.83;;
28483;SDS011;15704;48.834;8.736;2023-03-29T05:07:17;4.30;;;2.60;;
28483;SDS011;15704;48.834;8.736;2023-03-29T05:09:44;4.13;;;2.03;;
28483;SDS011;15704;48.834;8.736;2023-03-29T05:12:11;2.45;;;1.27;;
28483;SDS011;15704;48.834;8.736;2023-03-29T05:14:38;4.80;;;1.75;;
28483;SDS011;15704;48.834;8.736;2023-03-29T05:17:04;3.92;;;1.45;;
28483;SDS011;15704;48.834;8.736;2023-03-29T05:19:31;2.25;;;1.55;;
28483;SDS011;15704;48.834;8.736;2023-03-29T05:21:58;1.90;;;1.20;;
28483;SDS011;15704;48.834;8.736;2023-03-29T05:24:25;6.65;;;1.40;;
28483;SDS011;15704;48.834;8.736;2023-03-29T05:26:52;5.18;;;1.42;;
28483;SDS011;15704;48.834;8.736;2023-03-29T05:29:19;4.88;;;1.20;;
28483;SDS011;15704;48.834;8.736;2023-03-29T05:31:46;1.88;;;1.20;;
28483;SDS011;15704;48.834;8.736;2023-03-29T05:34:13;4.60;;;1.77;;
28483;SDS011;15704;48.834;8.736;2023-03-29T05:36:40;7.05;;;1.63;;
28483;SDS011;15704;48.834;8.736;2023-03-29T05:39:07;7.03;;;1.52;;
28483;SDS011;15704;48.834;8.736;2023-03-29T05:41:36;3.13;;;1.85;;
28483;SDS011;15704;48.834;8.736;2023-03-29T05:44:03;4.57;;;2.10;;
28483;SDS011;15704;48.834;8.736;2023-03-29T05:46:29;2.15;;;1.33;;
28483;SDS011;15704;48.834;8.736;2023-03-29T05:48:56;6.13;;;2.20;;
28483;SDS011;15704;48.834;8.736;2023-03-29T05:51:23;5.30;;;1.80;;
28483;SDS011;15704;48.834;8.736;2023-03-29T05:53:50;5.15;;;2.35;;
28483;SDS011;15704;48.834;8.736;2023-03-29T05:56:17;5.90;;;2.75;;
28483;SDS011;15704;48.834;8.736;2023-03-29T05:58:44;3.53;;;1.50;;
28483;SDS011;15704;48.834;8.736;2023-03-29T06:01:20;3.45;;;1.65;;
28483;SDS011;15704;48.834;8.736;2023-03-29T06:03:47;16.88;;;6.97;;
28483;SDS011;15704;48.834;8.736;2023-03-29T06:06:14;9.45;;;3.47;;
28483;SDS011;15704;48.834;8.736;2023-03-29T06:08:42;6.38;;;2.92;;
28483;SDS011;15704;48.834;8.736;2023-03-29T06:11:10;5.45;;;2.38;;
28483;SDS011;15704;48.834;8.736;2023-03-29T06:13:38;6.63;;;2.17;;
28483;SDS011;15704;48.834;8.736;2023-03-29T06:16:08;7.70;;;3.35;;
28483;SDS011;15704;48.834;8.736;2023-03-29T06:18:35;4.00;;;2.30;;
28483;SDS011;15704;48.834;8.736;2023-03-29T06:21:05;3.97;;;1.90;;
28483;SDS011;15704;48.834;8.736;2023-03-29T06:23:34;2.00;;;1.63;;
28483;SDS011;15704;48.834;8.736;2023-03-29T06:26:01;6.93;;;1.90;;
28483;SDS011;15704;48.834;8.736;2023-03-29T06:28:28;5.40;;;2.47;;
28483;SDS011;15704;48.834;8.736;2023-03-29T06:30:55;5.07;;;2.53;;
28483;SDS011;15704;48.834;8.736;2023-03-29T06:33:28;3.72;;;2.35;;
28483;SDS011;15704;48.834;8.736;2023-03-29T06:35:55;3.03;;;1.80;;
28483;SDS011;15704;48.834;8.736;2023-03-29T06:38:23;3.20;;;2.00;;
28483;SDS011;15704;48.834;8.736;2023-03-29T06:40:58;3.03;;;1.75;;
28483;SDS011;15704;48.834;8.736;2023-03-29T06:43:27;4.32;;;1.17;;
28483;SDS011;15704;48.834;8.736;2023-03-29T06:45:54;2.17;;;1.30;;
28483;SDS011;15704;48.834;8.736;2023-03-29T06:48:20;2.40;;;1.33;;
28483;SDS011;15704;48.834;8.736;2023-03-29T06:50:47;32.15;;;14.05;;
28483;SDS011;15704;48.834;8.736;2023-03-29T06:53:14;5.97;;;2.78;;
28483;SDS011;15704;48.834;8.736;2023-03-29T06:55:42;9.65;;;3.72;;
28483;SDS011;15704;48.834;8.736;2023-03-29T06:58:08;12.48;;;2.20;;
28483;SDS011;15704;48.834;8.736;2023-03-29T07:00:36;9.95;;;4.82;;
28483;SDS011;15704;48.834;8.736;2023-03-29T07:03:05;8.43;;;3.97;;
28483;SDS011;15704;48.834;8.736;2023-03-29T07:05:35;4.80;;;3.22;;
28483;SDS011;15704;48.834;8.736;2023-03-29T07:08:06;4.07;;;2.60;;
28483;SDS011;15704;48.834;8.736;2023-03-29T07:10:37;3.20;;;2.20;;
28483;SDS011;15704;48.834;8.736;2023-03-29T07:13:07;5.38;;;2.53;;
28483;SDS011;15704;48.834;8.736;2023-03-29T07:15:37;3.40;;;1.60;;
28483;SDS011;15704;48.834;8.736;2023-03-29T07:18:09;3.35;;;1.50;;
28483;SDS011;15704;48.834;8.736;2023-03-29T07:20:37;3.40;;;1.45;;
28483;SDS011;15704;48.834;8.736;2023-03-29T07:23:05;2.85;;;2.08;;
28483;SDS011;15704;48.834;8.736;2023-03-29T07:25:34;4.10;;;2.03;;
28483;SDS011;15704;48.834;8.736;2023-03-29T07:28:01;3.53;;;1.63;;
28483;SDS011;15704;48.834;8.736;2023-03-29T07:30:31;3.55;;;1.80;;
28483;SDS011;15704;48.834;8.736;2023-03-29T07:32:58;3.95;;;1.60;;
28483;SDS011;15704;48.834;8.736;2023-03-29T07:35:25;2.80;;;1.60;;
28483;SDS011;15704;48.834;8.736;2023-03-29T07:37:52;8.32;;;1.60;;
28483;SDS011;15704;48.834;8.736;2023-03-29T07:40:23;1.88;;;1.30;;
28483;SDS011;15704;48.834;8.736;2023-03-29T07:42:52;2.88;;;1.27;;
28483;SDS011;15704;48.834;8.736;2023-03-29T07:45:21;2.60;;;1.50;;
28483;SDS011;15704;48.834;8.736;2023-03-29T07:47:56;5.10;;;1.30;;
28483;SDS011;15704;48.834;8.736;2023-03-29T07:50:27;1.97;;;1.13;;
28483;SDS011;15704;48.834;8.736;2023-03-29T07:52:57;3.72;;;1.60;;
28483;SDS011;15704;48.834;8.736;2023-03-29T07:55:26;3.10;;;1.20;;
28483;SDS011;15704;48.834;8.736;2023-03-29T07:57:53;5.97;;;1.20;;
28483;SDS011;15704;48.834;8.736;2023-03-29T08:00:20;2.25;;;1.13;;
28483;SDS011;15704;48.834;8.736;2023-03-29T08:02:50;3.60;;;1.77;;
28483;SDS011;15704;48.834;8.736;2023-03-29T08:05:18;3.25;;;1.95;;
28483;SDS011;15704;48.834;8.736;2023-03-29T08:08:03;3.88;;;2.00;;
28483;SDS011;15704;48.834;8.736;2023-03-29T08:10:30;2.70;;;1.55;;
28483;SDS011;15704;48.834;8.736;2023-03-29T08:12:59;5.65;;;1.70;;
28483;SDS011;15704;48.834;8.736;2023-03-29T08:15:28;8.45;;;1.65;;
28483;SDS011;15704;48.834;8.736;2023-03-29T08:17:55;3.85;;;1.40;;
28483;SDS011;15704;48.834;8.736;2023-03-29T08:20:22;8.15;;;1.30;;
28483;SDS011;15704;48.834;8.736;2023-03-29T08:22:49;5.00;;;1.42;;
28483;SDS011;15704;48.834;8.736;2023-03-29T08:25:16;4.70;;;2.00;;
28483;SDS011;15704;48.834;8.736;2023-03-29T08:27:42;4.13;;;1.80;;
28483;SDS011;15704;48.834;8.736;2023-03-29T08:30:10;2.10;;;1.45;;
28483;SDS011;15704;48.834;8.736;2023-03-29T08:32:37;4.30;;;1.48;;
28483;SDS011;15704;48.834;8.736;2023-03-29T08:35:04;3.00;;;1.50;;
28483;SDS011;15704;48.834;8.736;2023-03-29T08:37:34;4.03;;;1.58;;
28483;SDS011;15704;48.834;8.736;2023-03-29T08:40:01;5.35;;;1.30;;
28483;SDS011;15704;48.834;8.736;2023-03-29T08:45:12;2.80;;;1.70;;
28483;SDS011;15704;48.834;8.736;2023-03-29T08:50:22;4.00;;;1.70;;
28483;SDS011;15704;48.834;8.736;2023-03-29T08:53:11;2.80;;;1.80;;
28483;SDS011;15704;48.834;8.736;2023-03-29T08:55:47;2.97;;;1.52;;
28483;SDS011;15704;48.834;8.736;2023-03-29T08:58:18;4.80;;;1.70;;
28483;SDS011;15704;48.834;8.736;2023-03-29T09:00:50;4.60;;;1.35;;
28483;SDS011;15704;48.834;8.736;2023-03-29T09:06:02;4.28;;;1.90;;
28483;SDS011;15704;48.834;8.736;2023-03-29T09:08:36;5.95;;;2.03;;
28483;SDS011;15704;48.834;8.736;2023-03-29T09:11:16;5.07;;;1.80;;
28483;SDS011;15704;48.834;8.736;2023-03-29T09:32:30;4.15;;;1.70;;
28483;SDS011;15704;48.834;8.736;2023-03-29T09:35:21;2.58;;;1.40;;
28483;SDS011;15704;48.834;8.736;2023-03-29T09:37:51;12.02;;;1.83;;
28483;SDS011;15704;48.834;8.736;2023-03-29T09:42:59;3.85;;;1.33;;
28483;SDS011;15704;48.834;8.736;2023-03-29T09:45:29;6.47;;;1.90;;
28483;SDS011;15704;48.834;8.736;2023-03-29T09:47:57;3.92;;;1.70;;
28483;SDS011;15704;48.834;8.736;2023-03-29T09:50:36;3.05;;;1.15;;
28483;SDS011;15704;48.834;8.736;2023-03-29T09:53:09;6.57;;;1.80;;
28483;SDS011;15704;48.834;8.736;2023-03-29T09:55:36;7.07;;;1.90;;
28483;SDS011;15704;48.834;8.736;2023-03-29T09:58:38;8.77;;;4.00;;
28483;SDS011;15704;48.834;8.736;2023-03-29T10:00:59;7.22;;;3.00;;
28483;SDS011;15704;48.834;8.736;2023-03-29T10:03:29;15.10;;;5.82;;
28483;SDS011;15704;48.834;8.736;2023-03-29T10:05:59;12.35;;;4.00;;
28483;SDS011;15704;48.834;8.736;2023-03-29T10:08:29;3.97;;;2.30;;
28483;SDS011;15704;48.834;8.736;2023-03-29T10:11:24;5.15;;;1.50;;
28483;SDS011;15704;48.834;8.736;2023-03-29T10:13:57;3.90;;;1.90;;
28483;SDS011;15704;48.834;8.736;2023-03-29T10:16:28;2.67;;;1.55;;
28483;SDS011;15704;48.834;8.736;2023-03-29T10:19:05;2.75;;;1.52;;
28483;SDS011;15704;48.834;8.736;2023-03-29T10:22:15;2.67;;;1.40;;
28483;SDS011;15704;48.834;8.736;2023-03-29T10:24:48;4.57;;;1.50;;
28483;SDS011;15704;48.834;8.736;2023-03-29T10:27:23;9.52;;;2.00;;
28483;SDS011;15704;48.834;8.736;2023-03-29T10:29:53;2.65;;;1.23;;
28483;SDS011;15704;48.834;8.736;2023-03-29T10:34:53;3.77;;;2.40;;
28483;SDS011;15704;48.834;8.736;2023-03-29T10:37:20;3.72;;;1.35;;
28483;SDS011;15704;48.834;8.736;2023-03-29T10:39:48;3.47;;;1.50;;
28483;SDS011;15704;48.834;8.736;2023-03-29T10:42:16;2.85;;;1.48;;
28483;SDS011;15704;48.834;8.736;2023-03-29T10:44:54;5.05;;;1.60;;
28483;SDS011;15704;48.834;8.736;2023-03-29T10:47:23;3.92;;;1.50;;
28483;SDS011;15704;48.834;8.736;2023-03-29T10:49:51;3.30;;;1.35;;
28483;SDS011;15704;48.834;8.736;2023-03-29T10:52:24;4.18;;;1.13;;
28483;SDS011;15704;48.834;8.736;2023-03-29T10:54:51;4.60;;;1.70;;
28483;SDS011;15704;48.834;8.736;2023-03-29T10:57:25;2.85;;;1.50;;
28483;SDS011;15704;48.834;8.736;2023-03-29T11:08:29;4.85;;;1.77;;
28483;SDS011;15704;48.834;8.736;2023-03-29T11:41:51;4.80;;;2.22;;
28483;SDS011;15704;48.834;8.736;2023-03-29T11:44:31;8.40;;;2.60;;
28483;SDS011;15704;48.834;8.736;2023-03-29T11:47:01;3.00;;;1.40;;
28483;SDS011;15704;48.834;8.736;2023-03-29T11:49:37;3.97;;;2.03;;
28483;SDS011;15704;48.834;8.736;2023-03-29T11:54:59;2.90;;;1.27;;
28483;SDS011;15704;48.834;8.736;2023-03-29T11:57:39;5.43;;;1.50;;
28483;SDS011;15704;48.834;8.736;2023-03-29T12:00:20;3.67;;;1.63;;
28483;SDS011;15704;48.834;8.736;2023-03-29T12:05:36;9.38;;;1.25;;
28483;SDS011;15704;48.834;8.736;2023-03-29T12:08:15;2.78;;;1.02;;
28483;SDS011;15704;48.834;8.736;2023-03-29T12:13:38;4.38;;;1.13;;
28483;SDS011;15704;48.834;8.736;2023-03-29T12:16:14;2.60;;;1.27;;
28483;SDS011;15704;48.834;8.736;2023-03-29T12:18:51;4.07;;;1.70;;
28483;SDS011;15704;48.834;8.736;2023-03-29T12:21:22;2.20;;;0.80;;
28483;SDS011;15704;48.834;8.736;2023-03-29T12:23:51;6.57;;;1.60;;
28483;SDS011;15704;48.834;8.736;2023-03-29T12:29:14;4.53;;;1.20;;
28483;SDS011;15704;48.834;8.736;2023-03-29T12:37:45;3.33;;;1.20;;
28483;SDS011;15704;48.834;8.736;2023-03-29T12:40:34;5.82;;;1.45;;
28483;SDS011;15704;48.834;8.736;2023-03-29T12:43:05;3.25;;;1.85;;
28483;SDS011;15704;48.834;8.736;2023-03-29T12:45:43;4.53;;;1.00;;
28483;SDS011;15704;48.834;8.736;2023-03-29T12:48:14;2.63;;;1.10;;
28483;SDS011;15704;48.834;8.736;2023-03-29T12:50:52;3.92;;;2.65;;
28483;SDS011;15704;48.834;8.736;2023-03-29T12:53:26;4.00;;;1.83;;
28483;SDS011;15704;48.834;8.736;2023-03-29T13:03:51;4.68;;;1.88;;
28483;SDS011;15704;48.834;8.736;2023-03-29T13:06:34;2.38;;;1.50;;
28483;SDS011;15704;48.834;8.736;2023-03-29T13:09:25;3.92;;;1.60;;
28483;SDS011;15704;48.834;8.736;2023-03-29T13:14:38;1.65;;;0.95;;
28483;SDS011;15704;48.834;8.736;2023-03-29T13:20:19;4.18;;;1.70;;
28483;SDS011;15704;48.834;8.736;2023-03-29T13:23:29;7.07;;;1.93;;
28483;SDS011;15704;48.834;8.736;2023-03-29T13:34:19;13.23;;;2.00;;
28483;SDS011;15704;48.834;8.736;2023-03-29T13:39:52;4.13;;;1.48;;
28483;SDS011;15704;48.834;8.736;2023-03-29T13:47:47;3.35;;;1.45;;
28483;SDS011;15704;48.834;8.736;2023-03-29T13:52:59;4.97;;;2.42;;
28483;SDS011;15704;48.834;8.736;2023-03-29T13:55:43;8.23;;;2.15;;
28483;SDS011;15704;48.834;8.736;2023-03-29T13:58:16;4.60;;;2.05;;
28483;SDS011;15704;48.834;8.736;2023-03-29T14:01:12;6.47;;;1.63;;
28483;SDS011;15704;48.834;8.736;2023-03-29T14:04:00;6.00;;;1.77;;
28483;SDS011;15704;48.834;8.736;2023-03-29T14:06:33;3.50;;;1.40;;
28483;SDS011;15704;48.834;8.736;2023-03-29T14:09:03;5.55;;;1.60;;
28483;SDS011;15704;48.834;8.736;2023-03-29T14:11:33;3.08;;;1.40;;
28483;SDS011;15704;48.834;8.736;2023-03-29T14:14:02;5.88;;;1.55;;
28483;SDS011;15704;48.834;8.736;2023-03-29T14:16:36;3.05;;;1.10;;
28483;SDS011;15704;48.834;8.736;2023-03-29T14:19:15;4.57;;;1.58;;
28483;SDS011;15704;48.834;8.736;2023-03-29T14:21:44;3.90;;;1.40;;
28483;SDS011;15704;48.834;8.736;2023-03-29T14:24:12;11.50;;;1.05;;
28483;SDS011;15704;48.834;8.736;2023-03-29T14:26:46;3.17;;;1.30;;
28483;SDS011;15704;48.834;8.736;2023-03-29T14:29:13;2.47;;;0.95;;
28483;SDS011;15704;48.834;8.736;2023-03-29T14:31:40;3.05;;;1.83;;
28483;SDS011;15704;48.834;8.736;2023-03-29T14:34:14;10.10;;;1.83;;
28483;SDS011;15704;48.834;8.736;2023-03-29T14:36:45;8.50;;;1.98;;
28483;SDS011;15704;48.834;8.736;2023-03-29T14:39:18;8.73;;;1.30;;
28483;SDS011;15704;48.834;8.736;2023-03-29T14:41:53;3.50;;;2.00;;
28483;SDS011;15704;48.834;8.736;2023-03-29T14:44:25;6.03;;;2.00;;
28483;SDS011;15704;48.834;8.736;2023-03-29T14:46:58;1.48;;;1.00;;
28483;SDS011;15704;48.834;8.736;2023-03-29T14:49:26;3.33;;;1.70;;
28483;SDS011;15704;48.834;8.736;2023-03-29T14:51:54;3.45;;;1.88;;
28483;SDS011;15704;48.834;8.736;2023-03-29T14:54:25;2.75;;;1.08;;
28483;SDS011;15704;48.834;8.736;2023-03-29T14:56:54;3.08;;;2.00;;
28483;SDS011;15704;48.834;8.736;2023-03-29T15:02:01;5.85;;;2.00;;
28483;SDS011;15704;48.834;8.736;2023-03-29T15:04:34;2.80;;;1.35;;
28483;SDS011;15704;48.834;8.736;2023-03-29T15:07:02;8.95;;;3.25;;
28483;SDS011;15704;48.834;8.736;2023-03-29T15:09:31;10.60;;;4.25;;
28483;SDS011;15704;48.834;8.736;2023-03-29T15:12:00;6.50;;;2.05;;
28483;SDS011;15704;48.834;8.736;2023-03-29T15:14:29;5.38;;;1.88;;
28483;SDS011;15704;48.834;8.736;2023-03-29T15:17:06;8.23;;;1.50;;
28483;SDS011;15704;48.834;8.736;2023-03-29T15:20:23;3.75;;;2.15;;
28483;SDS011;15704;48.834;8.736;2023-03-29T15:25:25;2.70;;;1.30;;
28483;SDS011;15704;48.834;8.736;2023-03-29T15:27:57;3.42;;;1.20;;
28483;SDS011;15704;48.834;8.736;2023-03-29T15:30:42;6.53;;;1.38;;
28483;SDS011;15704;48.834;8.736;2023-03-29T15:33:36;4.32;;;1.25;;
28483;SDS011;15704;48.834;8.736;2023-03-29T15:36:17;1.92;;;0.85;;
28483;SDS011;15704;48.834;8.736;2023-03-29T15:38:55;6.65;;;2.13;;
28483;SDS011;15704;48.834;8.736;2023-03-29T15:42:08;7.07;;;1.30;;
28483;SDS011;15704;48.834;8.736;2023-03-29T15:44:35;8.65;;;2.72;;
28483;SDS011;15704;48.834;8.736;2023-03-29T15:47:09;4.55;;;1.02;;
28483;SDS011;15704;48.834;8.736;2023-03-29T15:49:37;2.58;;;0.93;;
28483;SDS011;15704;48.834;8.736;2023-03-29T15:52:04;4.38;;;1.15;;
28483;SDS011;15704;48.834;8.736;2023-03-29T15:54:31;16.05;;;1.80;;
28483;SDS011;15704;48.834;8.736;2023-03-29T15:57:03;5.55;;;1.38;;
28483;SDS011;15704;48.834;8.736;2023-03-29T15:59:36;5.53;;;1.60;;
28483;SDS011;15704;48.834;8.736;2023-03-29T16:02:03;10.55;;;1.30;;
28483;SDS011;15704;48.834;8.736;2023-03-29T16:04:30;7.53;;;1.63;;
28483;SDS011;15704;48.834;8.736;2023-03-29T16:06:57;12.65;;;2.38;;
28483;SDS011;15704;48.834;8.736;2023-03-29T16:09:24;13.10;;;2.20;;
28483;SDS011;15704;48.834;8.736;2023-03-29T16:11:51;14.32;;;3.05;;
28483;SDS011;15704;48.834;8.736;2023-03-29T16:14:27;8.25;;;1.48;;
28483;SDS011;15704;48.834;8.736;2023-03-29T16:16:59;5.05;;;1.95;;
28483;SDS011;15704;48.834;8.736;2023-03-29T16:19:27;7.07;;;1.80;;
28483;SDS011;15704;48.834;8.736;2023-03-29T16:21:56;3.85;;;1.30;;
28483;SDS011;15704;48.834;8.736;2023-03-29T16:24:24;6.00;;;1.40;;
28483;SDS011;15704;48.834;8.736;2023-03-29T16:26:53;8.88;;;2.33;;
28483;SDS011;15704;48.834;8.736;2023-03-29T16:29:22;10.35;;;4.28;;
28483;SDS011;15704;48.834;8.736;2023-03-29T16:31:49;7.15;;;2.67;;
28483;SDS011;15704;48.834;8.736;2023-03-29T16:34:17;3.30;;;1.60;;
28483;SDS011;15704;48.834;8.736;2023-03-29T16:36:45;4.68;;;1.48;;
28483;SDS011;15704;48.834;8.736;2023-03-29T16:39:13;10.38;;;1.80;;
28483;SDS011;15704;48.834;8.736;2023-03-29T16:41:40;5.18;;;1.30;;
28483;SDS011;15704;48.834;8.736;2023-03-29T16:44:11;12.20;;;3.00;;
28483;SDS011;15704;48.834;8.736;2023-03-29T16:46:41;5.80;;;3.55;;
28483;SDS011;15704;48.834;8.736;2023-03-29T16:49:10;12.52;;;2.78;;
28483;SDS011;15704;48.834;8.736;2023-03-29T16:51:43;10.30;;;3.78;;
28483;SDS011;15704;48.834;8.736;2023-03-29T16:54:19;8.20;;;2.70;;
28483;SDS011;15704;48.834;8.736;2023-03-29T16:56:46;6.20;;;2.13;;
28483;SDS011;15704;48.834;8.736;2023-03-29T16:59:13;7.57;;;2.92;;
28483;SDS011;15704;48.834;8.736;2023-03-29T17:01:40;7.53;;;2.60;;
28483;SDS011;15704;48.834;8.736;2023-03-29T17:04:07;9.18;;;2.63;;
28483;SDS011;15704;48.834;8.736;2023-03-29T17:06:34;13.07;;;3.13;;
28483;SDS011;15704;48.834;8.736;2023-03-29T17:09:02;6.43;;;2.50;;
28483;SDS011;15704;48.834;8.736;2023-03-29T17:11:30;8.15;;;2.70;;
28483;SDS011;15704;48.834;8.736;2023-03-29T17:13:57;39.10;;;11.82;;
28483;SDS011;15704;48.834;8.736;2023-03-29T17:16:24;8.32;;;3.15;;
28483;SDS011;15704;48.834;8.736;2023-03-29T17:18:54;6.75;;;3.25;;
28483;SDS011;15704;48.834;8.736;2023-03-29T17:21:23;12.75;;;6.07;;
28483;SDS011;15704;48.834;8.736;2023-03-29T17:23:51;6.32;;;2.83;;
28483;SDS011;15704;48.834;8.736;2023-03-29T17:26:18;7.82;;;2.50;;
28483;SDS011;15704;48.834;8.736;2023-03-29T17:28:45;5.90;;;1.67;;
28483;SDS011;15704;48.834;8.736;2023-03-29T17:31:11;2.65;;;1.38;;
28483;SDS011;15704;48.834;8.736;2023-03-29T17:33:38;10.32;;;2.33;;
28483;SDS011;15704;48.834;8.736;2023-03-29T17:36:05;9.00;;;2.72;;
28483;SDS011;15704;48.834;8.736;2023-03-29T17:38:33;18.15;;;7.28;;
28483;SDS011;15704;48.834;8.736;2023-03-29T17:41:00;16.55;;;3.15;;